Riceville, New York
Current Conditions -  °F | °C
As of 7:15 PM on Friday 24 Oct 2014 (Local Time) from KNY0 Reporting Station
Broken Clouds Broken Clouds  
Wind Chill: 50°   Ceiling: 8000
Heat Index: 50°   Visibility: 10mi
Dew Point: 42°   Wind: 3mph
Humidity: 73%   Direction: 310°NW
Pressure: 29.85"   Gusts: NA
Location:  43.1204°N, 74.3629°W
Report Text: KNY0 242315Z AUTO 31003KT 10SM BKN080 BKN090 10/06 A2985 RMK AO2 T01020056
Loading
Personal Weather Stations






























Interactive Weather Map
Tropical Storm Tracking
New forecast layout! Learn more

10-Day Weather Forecast

Advertisements
Track Severe Weather on mobile